Shawano, WI (54166)

8:13 AM CDT on March 30, 2017 (GMT -0500)
Willow Wood | | Change Station

Elev 810 ft 44.79 °N, 88.58 °W | Updated 11 minutes ago

Light Rain
Light Rain
33.8 °F
Feels Like 34 °F
N
1.2
Wind Variable Wind from NE
Gusts 3.7 mph

Today
High -- | Low -- °F
--% Chance of Precip.
Yesterday
High -- | Low -- °F
Precip. -- in
Pressure 30.03 in
Visibility 7.0 miles
Clouds Overcast 700 ft
Windchill 34 °F
Dew Point 30 °F
Humidity 84%
Rainfall 0.00 in
Snow Depth Not available.
6:38 AM 7:19 PM
Waxing Crescent, 8% visible
METAR KEZS 301255Z AUTO 06011KT 7SM -RA OVC007 02/01 A3003 RMK AO2 T00180005
Pressure 30.03 in
Visibility 7.0 miles
Clouds Overcast 700 ft
Windchill 34 °F
Dew Point 30 °F
Humidity 84%
Rainfall 0.00 in
Snow Depth Not available.
6:38 AM 7:19 PM
Waxing Crescent, 8% visible
METAR KEZS 301255Z AUTO 06011KT 7SM -RA OVC007 02/01 A3003 RMK AO2 T00180005

Get Severe Weather Alerts

Thanks for signing up!

Be on the lookout for a verification email in your inbox.

You'll start receiving the daily forecast at 8 AM.

×

10-Day Weather Forecast

Almanac

Astronomy

Mar. 30, 2017 Rise Set
Actual Time
Civil Twilight
Nautical Twilight
Astronomical Twilight
Moon
Length of Visible Light
Length of Day
Tomorrow will be .
, % of the Moon is Illuminated

Today's Extremes

State Highs State Lows

Community

WunderPhotos

Upload Photos

1,962,540 photos uploaded!

WunderBlog® & News

Nearby

Air Quality

  Air Quality AQ Index Pollutant
Not available.

Snow Depth

Station Depth Elevation

Earthquake Activity

City Distance Mag. Time & Date
Minimum magnitude displayed is 2.5.

Earthquake Activity

City Distance Mag. Time & Date
Minimum magnitude displayed is 2.5.

Coastal Water Temperatures

Place Temperature

Stations

Nearby Weather Stations

Station Location Temp. Windchill Dew Point Humidity Wind Precip. Elev Updated Type
                   

Watches & Warnings

There are currently no watches in effect.